CDT,Max TemperatureF,Mean TemperatureF,Min TemperatureF,Max Dew PointF,MeanDew PointF,Min DewpointF,Max Humidity, Mean Humidity, Min Humidity, Max Sea Level PressureIn, Mean Sea Level PressureIn, Min Sea Level PressureIn, Max VisibilityMiles, Mean VisibilityMiles, Min VisibilityMiles, Max Wind SpeedMPH, Mean Wind SpeedMPH, Max Gust SpeedMPH,PrecipitationIn, CloudCover, Events, WindDirDegrees
2013-7-1,84,72,59,55,51,43,82,52,25,30.22,30.19,30.16,10,10,10,10,3,,0.00,1,,10
2013-7-2,82,71,60,59,54,50,82,56,32,30.18,30.14,30.08,10,10,4,12,2,,0.00,1,,26
2013-7-3,84,70,57,61,54,50,94,56,32,30.10,30.03,29.97,10,10,7,8,1,,0.00,1,,117
2013-7-4,87,76,64,57,54,48,77,50,25,29.97,29.93,29.88,10,10,10,18,8,25,0.00,0,,179
2013-7-5,87,79,71,61,57,54,61,50,33,29.90,29.86,29.82,10,10,10,20,12,29,0.00,1,,177
2013-7-6,89,80,71,66,62,59,73,56,40,29.87,29.85,29.81,10,10,10,18,10,24,0.00,0,,168
2013-7-7,91,81,71,72,65,63,73,62,41,29.94,29.87,29.85,10,10,10,13,6,17,0.00,1,Thunderstorm,208
2013-7-8,89,76,64,70,65,57,94,66,33,30.02,29.98,29.94,10,10,10,8,4,,0.00,0,,71
2013-7-9,86,76,66,72,67,63,89,70,51,30.01,29.92,29.81,10,10,3,32,8,53,0.34,1,Rain-Thunderstorm,260
2013-7-10,78,68,59,64,56,52,88,65,39,30.13,30.08,30.02,10,10,10,17,8,20,0.00,0,,335
2013-7-11,84,70,57,61,56,54,94,59,37,30.13,30.06,29.98,10,10,3,18,4,24,0.00,0,,160
2013-7-12,89,79,69,63,60,55,64,53,40,30.01,29.95,29.90,10,10,10,22,13,31,0.00,0,,165
2013-7-13,82,76,71,66,63,61,78,64,54,30.06,29.98,29.92,10,10,10,20,10,25,0.00,1,Thunderstorm,150
2013-7-14,87,78,66,66,61,54,94,63,31,30.20,30.11,30.02,10,10,7,16,9,22,0.00,2,Rain-Thunderstorm,160
2013-7-15,87,76,64,70,63,59,94,64,40,30.25,30.21,30.17,10,10,10,10,3,17,0.00,1,,153
2013-7-16,89,80,71,70,66,59,88,61,36,30.26,30.23,30.19,10,10,7,15,6,20,0.00,0,,191
2013-7-17,91,80,69,70,66,63,88,60,38,30.30,30.25,30.16,10,10,10,14,4,20,0.00,0,,202
2013-7-18,93,84,75,70,67,63,78,58,38,30.16,30.00,29.85,10,10,10,24,11,30,0.00,0,,203
2013-7-19,82,74,64,68,62,54,83,59,37,29.96,29.91,29.82,10,10,7,17,11,25,0.00,1,,296
2013-7-20,82,70,59,63,60,55,88,68,45,30.00,29.95,29.91,10,10,10,14,1,18,0.00,2,Rain,328
2013-7-21,87,76,64,66,61,52,94,66,31,29.95,29.87,29.80,10,10,7,10,2,,0.00,1,Rain,140
2013-7-22,87,74,62,70,63,55,88,69,46,29.92,29.79,29.70,10,10,10,21,10,25,0.00,2,Rain,264
2013-7-23,75,65,55,57,55,52,94,73,47,30.05,30.00,29.91,10,10,3,10,5,,0.00,1,Rain,349
2013-7-24,78,66,53,57,55,52,94,66,39,30.10,30.06,30.02,10,10,5,12,2,17,0.00,3,,310
2013-7-25,82,72,62,68,62,55,88,71,54,30.03,29.99,29.95,10,10,10,14,5,24,0.02,1,Rain-Thunderstorm,236
2013-7-26,69,61,53,63,53,46,94,72,49,30.13,30.06,29.98,10,10,10,25,11,32,0.00,4,Rain,315
2013-7-27,68,59,50,48,45,39,94,63,37,30.13,30.08,30.01,10,10,10,18,8,26,0.00,4,,320
2013-7-28,71,58,44,54,47,41,93,66,41,30.09,30.04,30.02,10,10,10,14,5,20,0.00,1,,314
2013-7-29,77,60,44,55,49,45,100,62,36,30.12,30.09,30.06,10,10,0,14,2,18,0.00,2,Fog,158
2013-7-30,73,68,60,63,60,55,88,77,64,30.11,30.09,30.07,10,10,7,9,1,,0.00,7,,281
2013-7-31,80,68,55,61,57,48,100,72,32,30.15,30.10,30.06,10,9,0,13,3,17,0.00,1,Fog-Rain,301